Am Falls, Idaho
Current Conditions -  °F | °C
As of 1:53 AM on Saturday 29 Nov 2014 (Local Time) from KPIH Reporting Station
Haze Haze  
Wind Chill: 43°   Ceiling: 10000
Heat Index: 48°   Visibility: 6mi
Dew Point: 17°   Wind: 13mph
Humidity: 29%   Direction: 210°SSW
Pressure: 29.67"   Gusts: NA
Location:  42.8287°N, 113.023°W
Report Text: KPIH 290853Z AUTO 21011KT 6SM HZ FEW060 OVC100 09/M08 A2967 RMK AO2 SLP021 T00891083 58012
Loading
Personal Weather Stations






























Interactive Weather Map New forecast layout! Learn more

10-Day Weather Forecast

Advertisements
Track Severe Weather on mobile